Aérodrome :
LOGIN :

S'inscrire | Disclaimer

   EN    FR    IT 

 










Légende :    VFR   VFR Marginal   IFR   IFR Intensif   IFR Très Intensif
Visi : 
Plafond : 
>= 8 km
>= 3000ft
5 à 8 km
1000 à 3000 ft
1500m à 5 km
500 à 1000 ft
800 à 1500m
200 à 500 ft
< 800m
< 200 ft
Symboles :   Orages  Brouillard  Fortes neiges  Fortes précipitations  Vent > 20 kt
SIGMETs :   Divers  Orages  Givrage  Turbulence  Onde Orograph.  Cendres Volcan.






- Altitude de l'aérodrome : 286 ft
- Code IATA : TRF


ENTO - Sandefjord , Torp

DERNIER METAR :
  • 260050Z AUTO 14005KT 140V220 9999 NCD 09/08 Q1031

METARs EXPIRÉS :
  • 260020Z AUTO 20003KT 140V220 9999 NCD 09/07 Q1031
  • 252350Z AUTO VRB03KT 9999 NCD 09/07 Q1032
  • 252320Z AUTO 21004KT 140V220 9999 NCD 10/07 Q1032
  • 252250Z AUTO 19003KT 140V220 9999 NCD 10/07 Q1031
  • 252220Z AUTO 22004KT 140V230 9999 NCD 11/07 Q1031

TAF TAF ENTO
Valide du 26 à 00h jusqu'au 27 à 00h UTC


2600/2624 20007KT CAVOK
TEMPO 2610/2616 18015G25KT
BECMG 2622/2624 34010KT



MET'MAP, la Météo Aéronautique d'un coup d'oeil ! - Copyright ORBIFLY Décembre 2007 - Disclaimer

ORBIFLY MET'MAP TEAM :

Programmation & Développement : Alexandra Zaïnal
Sur une idée originale de : Baudouin d'Aumeries
Assistance à la programmation : Marc-Olivier Méhu
Soutien technique & logistique : Manuel Goepfert

Contact : metmap@orbifly.com




SOURCES & CREDITS :

   NOAA